sensor_id;sensor_type;location;lat;lon;timestamp;P1;durP1;ratioP1;P2;durP2;ratioP2
37221;SDS011;23119;51.842;-2.230;2022-11-12T00:01:14;3.70;;;0.60;;
37221;SDS011;23119;51.842;-2.230;2022-11-12T00:03:50;4.53;;;0.70;;
37221;SDS011;23119;51.842;-2.230;2022-11-12T00:06:16;3.63;;;0.50;;
37221;SDS011;23119;51.842;-2.230;2022-11-12T00:08:44;4.82;;;0.50;;
37221;SDS011;23119;51.842;-2.230;2022-11-12T00:11:13;3.83;;;0.57;;
37221;SDS011;23119;51.842;-2.230;2022-11-12T00:13:41;2.72;;;0.60;;
37221;SDS011;23119;51.842;-2.230;2022-11-12T00:16:10;5.90;;;0.50;;
37221;SDS011;23119;51.842;-2.230;2022-11-12T00:18:39;6.90;;;0.70;;
37221;SDS011;23119;51.842;-2.230;2022-11-12T00:21:05;5.07;;;0.63;;
37221;SDS011;23119;51.842;-2.230;2022-11-12T00:23:33;2.13;;;0.43;;
37221;SDS011;23119;51.842;-2.230;2022-11-12T00:25:59;5.15;;;0.60;;
37221;SDS011;23119;51.842;-2.230;2022-11-12T00:28:26;2.38;;;0.70;;
37221;SDS011;23119;51.842;-2.230;2022-11-12T00:30:54;3.05;;;1.00;;
37221;SDS011;23119;51.842;-2.230;2022-11-12T00:33:22;3.50;;;0.57;;
37221;SDS011;23119;51.842;-2.230;2022-11-12T00:35:48;3.38;;;0.50;;
37221;SDS011;23119;51.842;-2.230;2022-11-12T00:38:14;7.30;;;0.90;;
37221;SDS011;23119;51.842;-2.230;2022-11-12T00:40:49;3.92;;;0.63;;
37221;SDS011;23119;51.842;-2.230;2022-11-12T00:43:18;4.07;;;0.57;;
37221;SDS011;23119;51.842;-2.230;2022-11-12T00:45:48;4.60;;;0.85;;
37221;SDS011;23119;51.842;-2.230;2022-11-12T00:48:17;7.45;;;0.70;;
37221;SDS011;23119;51.842;-2.230;2022-11-12T00:50:48;4.30;;;0.60;;
37221;SDS011;23119;51.842;-2.230;2022-11-12T00:53:14;4.15;;;0.50;;
37221;SDS011;23119;51.842;-2.230;2022-11-12T00:55:41;5.45;;;0.80;;
37221;SDS011;23119;51.842;-2.230;2022-11-12T00:58:07;6.30;;;0.75;;
37221;SDS011;23119;51.842;-2.230;2022-11-12T01:00:35;4.70;;;1.00;;
37221;SDS011;23119;51.842;-2.230;2022-11-12T01:03:05;3.55;;;0.70;;
37221;SDS011;23119;51.842;-2.230;2022-11-12T01:05:31;4.32;;;0.60;;
37221;SDS011;23119;51.842;-2.230;2022-11-12T01:08:00;3.67;;;0.82;;
37221;SDS011;23119;51.842;-2.230;2022-11-12T01:10:29;2.72;;;0.75;;
37221;SDS011;23119;51.842;-2.230;2022-11-12T01:13:04;4.80;;;0.50;;
37221;SDS011;23119;51.842;-2.230;2022-11-12T01:15:39;2.85;;;0.60;;
37221;SDS011;23119;51.842;-2.230;2022-11-12T01:18:07;4.88;;;0.60;;
37221;SDS011;23119;51.842;-2.230;2022-11-12T01:20:36;5.95;;;0.60;;
37221;SDS011;23119;51.842;-2.230;2022-11-12T01:23:07;5.30;;;0.98;;
37221;SDS011;23119;51.842;-2.230;2022-11-12T01:25:39;5.80;;;0.70;;
37221;SDS011;23119;51.842;-2.230;2022-11-12T01:28:07;3.88;;;0.73;;
37221;SDS011;23119;51.842;-2.230;2022-11-12T01:30:33;2.75;;;0.47;;
37221;SDS011;23119;51.842;-2.230;2022-11-12T01:33:01;4.43;;;0.47;;
37221;SDS011;23119;51.842;-2.230;2022-11-12T01:35:32;7.50;;;0.60;;
37221;SDS011;23119;51.842;-2.230;2022-11-12T01:38:03;7.53;;;1.00;;
37221;SDS011;23119;51.842;-2.230;2022-11-12T01:40:30;5.40;;;0.68;;
37221;SDS011;23119;51.842;-2.230;2022-11-12T01:42:57;3.67;;;0.60;;
37221;SDS011;23119;51.842;-2.230;2022-11-12T01:45:25;2.22;;;0.52;;
37221;SDS011;23119;51.842;-2.230;2022-11-12T01:47:53;5.00;;;0.68;;
37221;SDS011;23119;51.842;-2.230;2022-11-12T01:50:26;4.25;;;0.80;;
37221;SDS011;23119;51.842;-2.230;2022-11-12T01:53:04;4.70;;;0.60;;
37221;SDS011;23119;51.842;-2.230;2022-11-12T01:55:34;5.75;;;0.60;;
37221;SDS011;23119;51.842;-2.230;2022-11-12T01:58:09;4.85;;;0.80;;
37221;SDS011;23119;51.842;-2.230;2022-11-12T02:00:40;6.32;;;0.60;;
37221;SDS011;23119;51.842;-2.230;2022-11-12T02:03:09;5.38;;;0.68;;
37221;SDS011;23119;51.842;-2.230;2022-11-12T02:05:41;4.97;;;0.93;;
37221;SDS011;23119;51.842;-2.230;2022-11-12T02:08:15;1.73;;;0.60;;
37221;SDS011;23119;51.842;-2.230;2022-11-12T02:10:44;4.05;;;1.15;;
37221;SDS011;23119;51.842;-2.230;2022-11-12T02:13:13;5.93;;;0.73;;
37221;SDS011;23119;51.842;-2.230;2022-11-12T02:16:00;5.45;;;0.60;;
37221;SDS011;23119;51.842;-2.230;2022-11-12T02:18:32;5.20;;;0.70;;
37221;SDS011;23119;51.842;-2.230;2022-11-12T02:21:04;3.30;;;0.60;;
37221;SDS011;23119;51.842;-2.230;2022-11-12T02:23:33;3.70;;;0.50;;
37221;SDS011;23119;51.842;-2.230;2022-11-12T02:26:01;4.22;;;0.60;;
37221;SDS011;23119;51.842;-2.230;2022-11-12T02:28:27;5.45;;;0.80;;
37221;SDS011;23119;51.842;-2.230;2022-11-12T02:31:01;2.17;;;0.60;;
37221;SDS011;23119;51.842;-2.230;2022-11-12T02:33:27;4.88;;;0.80;;
37221;SDS011;23119;51.842;-2.230;2022-11-12T02:35:55;3.50;;;0.70;;
37221;SDS011;23119;51.842;-2.230;2022-11-12T02:38:24;4.70;;;0.80;;
37221;SDS011;23119;51.842;-2.230;2022-11-12T02:40:53;4.32;;;0.80;;
37221;SDS011;23119;51.842;-2.230;2022-11-12T02:43:19;1.92;;;0.60;;
37221;SDS011;23119;51.842;-2.230;2022-11-12T02:45:47;6.50;;;0.65;;
37221;SDS011;23119;51.842;-2.230;2022-11-12T02:48:15;5.20;;;1.02;;
37221;SDS011;23119;51.842;-2.230;2022-11-12T02:50:43;2.88;;;0.63;;
37221;SDS011;23119;51.842;-2.230;2022-11-12T02:53:10;4.65;;;1.17;;
37221;SDS011;23119;51.842;-2.230;2022-11-12T02:55:47;5.72;;;0.82;;
37221;SDS011;23119;51.842;-2.230;2022-11-12T02:58:18;4.47;;;0.65;;
37221;SDS011;23119;51.842;-2.230;2022-11-12T03:00:49;2.88;;;0.80;;
37221;SDS011;23119;51.842;-2.230;2022-11-12T03:03:17;2.70;;;0.68;;
37221;SDS011;23119;51.842;-2.230;2022-11-12T03:05:45;5.15;;;1.00;;
37221;SDS011;23119;51.842;-2.230;2022-11-12T03:08:18;4.85;;;0.65;;
37221;SDS011;23119;51.842;-2.230;2022-11-12T03:10:49;5.35;;;0.80;;
37221;SDS011;23119;51.842;-2.230;2022-11-12T03:13:17;2.63;;;0.75;;
37221;SDS011;23119;51.842;-2.230;2022-11-12T03:15:46;4.85;;;0.85;;
37221;SDS011;23119;51.842;-2.230;2022-11-12T03:18:14;4.88;;;0.90;;
37221;SDS011;23119;51.842;-2.230;2022-11-12T03:20:45;2.13;;;0.65;;
37221;SDS011;23119;51.842;-2.230;2022-11-12T03:23:15;6.25;;;0.75;;
37221;SDS011;23119;51.842;-2.230;2022-11-12T03:25:44;2.45;;;0.70;;
37221;SDS011;23119;51.842;-2.230;2022-11-12T03:28:13;4.13;;;0.65;;
37221;SDS011;23119;51.842;-2.230;2022-11-12T03:30:55;6.65;;;0.70;;
37221;SDS011;23119;51.842;-2.230;2022-11-12T03:33:25;5.35;;;0.80;;
37221;SDS011;23119;51.842;-2.230;2022-11-12T03:35:56;3.95;;;1.05;;
37221;SDS011;23119;51.842;-2.230;2022-11-12T03:38:21;6.65;;;1.13;;
37221;SDS011;23119;51.842;-2.230;2022-11-12T03:40:47;3.05;;;0.80;;
37221;SDS011;23119;51.842;-2.230;2022-11-12T03:43:19;3.30;;;0.70;;
37221;SDS011;23119;51.842;-2.230;2022-11-12T03:45:47;4.82;;;0.95;;
37221;SDS011;23119;51.842;-2.230;2022-11-12T03:48:13;6.53;;;0.80;;
37221;SDS011;23119;51.842;-2.230;2022-11-12T03:50:50;5.03;;;0.90;;
37221;SDS011;23119;51.842;-2.230;2022-11-12T03:53:20;4.05;;;0.80;;
37221;SDS011;23119;51.842;-2.230;2022-11-12T03:55:49;3.10;;;0.88;;
37221;SDS011;23119;51.842;-2.230;2022-11-12T03:58:38;4.43;;;0.90;;
37221;SDS011;23119;51.842;-2.230;2022-11-12T04:01:06;7.18;;;1.15;;
37221;SDS011;23119;51.842;-2.230;2022-11-12T04:03:36;3.50;;;1.00;;
37221;SDS011;23119;51.842;-2.230;2022-11-12T04:06:07;3.47;;;0.95;;
37221;SDS011;23119;51.842;-2.230;2022-11-12T04:08:54;3.20;;;0.77;;
37221;SDS011;23119;51.842;-2.230;2022-11-12T04:11:25;3.55;;;1.17;;
37221;SDS011;23119;51.842;-2.230;2022-11-12T04:13:56;3.05;;;0.80;;
37221;SDS011;23119;51.842;-2.230;2022-11-12T04:16:27;4.15;;;1.10;;
37221;SDS011;23119;51.842;-2.230;2022-11-12T04:19:14;4.22;;;0.93;;
37221;SDS011;23119;51.842;-2.230;2022-11-12T04:22:08;5.47;;;0.80;;
37221;SDS011;23119;51.842;-2.230;2022-11-12T04:27:23;5.38;;;0.88;;
37221;SDS011;23119;51.842;-2.230;2022-11-12T04:32:36;5.07;;;0.80;;
37221;SDS011;23119;51.842;-2.230;2022-11-12T04:35:04;6.53;;;1.33;;
37221;SDS011;23119;51.842;-2.230;2022-11-12T04:37:36;3.55;;;1.00;;
37221;SDS011;23119;51.842;-2.230;2022-11-12T04:43:03;3.33;;;1.40;;
37221;SDS011;23119;51.842;-2.230;2022-11-12T04:45:51;7.00;;;1.27;;
37221;SDS011;23119;51.842;-2.230;2022-11-12T04:48:19;8.75;;;1.35;;
37221;SDS011;23119;51.842;-2.230;2022-11-12T04:50:46;7.18;;;0.90;;
37221;SDS011;23119;51.842;-2.230;2022-11-12T04:53:21;4.43;;;1.45;;
37221;SDS011;23119;51.842;-2.230;2022-11-12T04:55:53;4.18;;;0.90;;
37221;SDS011;23119;51.842;-2.230;2022-11-12T04:58:25;8.88;;;1.13;;
37221;SDS011;23119;51.842;-2.230;2022-11-12T05:00:56;4.87;;;1.00;;
37221;SDS011;23119;51.842;-2.230;2022-11-12T05:03:30;2.78;;;1.05;;
37221;SDS011;23119;51.842;-2.230;2022-11-12T05:06:02;6.18;;;1.85;;
37221;SDS011;23119;51.842;-2.230;2022-11-12T05:08:53;5.45;;;1.80;;
37221;SDS011;23119;51.842;-2.230;2022-11-12T05:11:22;6.82;;;1.45;;
37221;SDS011;23119;51.842;-2.230;2022-11-12T05:13:50;5.38;;;1.77;;
37221;SDS011;23119;51.842;-2.230;2022-11-12T05:16:21;8.45;;;3.00;;
37221;SDS011;23119;51.842;-2.230;2022-11-12T05:18:46;9.00;;;2.88;;
37221;SDS011;23119;51.842;-2.230;2022-11-12T05:21:15;7.90;;;2.55;;
37221;SDS011;23119;51.842;-2.230;2022-11-12T05:24:01;5.10;;;3.00;;
37221;SDS011;23119;51.842;-2.230;2022-11-12T05:26:29;5.18;;;2.42;;
37221;SDS011;23119;51.842;-2.230;2022-11-12T05:28:58;5.78;;;2.97;;
37221;SDS011;23119;51.842;-2.230;2022-11-12T05:31:23;10.45;;;4.15;;
37221;SDS011;23119;51.842;-2.230;2022-11-12T05:33:52;12.55;;;4.57;;
37221;SDS011;23119;51.842;-2.230;2022-11-12T05:36:21;10.07;;;3.72;;
37221;SDS011;23119;51.842;-2.230;2022-11-12T05:38:46;9.10;;;4.50;;
37221;SDS011;23119;51.842;-2.230;2022-11-12T05:41:12;10.50;;;4.10;;
37221;SDS011;23119;51.842;-2.230;2022-11-12T05:43:41;8.48;;;4.30;;
37221;SDS011;23119;51.842;-2.230;2022-11-12T05:46:07;9.88;;;4.72;;
37221;SDS011;23119;51.842;-2.230;2022-11-12T05:48:33;14.30;;;4.28;;
37221;SDS011;23119;51.842;-2.230;2022-11-12T05:51:01;10.20;;;4.40;;
37221;SDS011;23119;51.842;-2.230;2022-11-12T05:53:29;10.88;;;4.32;;
37221;SDS011;23119;51.842;-2.230;2022-11-12T05:56:03;7.53;;;4.55;;
37221;SDS011;23119;51.842;-2.230;2022-11-12T05:58:34;12.70;;;5.30;;
37221;SDS011;23119;51.842;-2.230;2022-11-12T06:01:05;7.32;;;4.60;;
37221;SDS011;23119;51.842;-2.230;2022-11-12T06:03:32;9.93;;;5.38;;
37221;SDS011;23119;51.842;-2.230;2022-11-12T06:05:59;12.00;;;5.13;;
37221;SDS011;23119;51.842;-2.230;2022-11-12T06:08:33;13.38;;;6.03;;
37221;SDS011;23119;51.842;-2.230;2022-11-12T06:10:59;11.90;;;5.97;;
37221;SDS011;23119;51.842;-2.230;2022-11-12T06:13:31;9.43;;;5.30;;
37221;SDS011;23119;51.842;-2.230;2022-11-12T06:16:00;10.70;;;5.65;;
37221;SDS011;23119;51.842;-2.230;2022-11-12T06:18:29;12.10;;;4.78;;
37221;SDS011;23119;51.842;-2.230;2022-11-12T06:21:05;10.43;;;5.05;;
37221;SDS011;23119;51.842;-2.230;2022-11-12T06:23:45;15.93;;;4.70;;
37221;SDS011;23119;51.842;-2.230;2022-11-12T06:26:17;11.25;;;4.50;;
37221;SDS011;23119;51.842;-2.230;2022-11-12T06:28:44;8.60;;;4.38;;
37221;SDS011;23119;51.842;-2.230;2022-11-12T06:31:12;15.40;;;4.85;;
37221;SDS011;23119;51.842;-2.230;2022-11-12T06:33:45;13.35;;;5.30;;
37221;SDS011;23119;51.842;-2.230;2022-11-12T06:36:15;9.68;;;5.00;;
37221;SDS011;23119;51.842;-2.230;2022-11-12T06:38:46;13.00;;;6.03;;
37221;SDS011;23119;51.842;-2.230;2022-11-12T06:41:18;8.68;;;5.00;;
37221;SDS011;23119;51.842;-2.230;2022-11-12T06:43:51;15.27;;;6.70;;
37221;SDS011;23119;51.842;-2.230;2022-11-12T06:46:22;10.98;;;4.85;;
37221;SDS011;23119;51.842;-2.230;2022-11-12T06:48:50;12.05;;;5.05;;
37221;SDS011;23119;51.842;-2.230;2022-11-12T06:51:17;7.97;;;5.05;;
37221;SDS011;23119;51.842;-2.230;2022-11-12T06:53:46;15.02;;;4.60;;
37221;SDS011;23119;51.842;-2.230;2022-11-12T06:56:19;12.02;;;4.53;;
37221;SDS011;23119;51.842;-2.230;2022-11-12T06:58:48;11.25;;;4.35;;
37221;SDS011;23119;51.842;-2.230;2022-11-12T07:01:17;6.50;;;4.25;;
37221;SDS011;23119;51.842;-2.230;2022-11-12T07:03:49;9.93;;;5.28;;
37221;SDS011;23119;51.842;-2.230;2022-11-12T07:06:21;7.38;;;4.50;;
37221;SDS011;23119;51.842;-2.230;2022-11-12T07:09:00;11.73;;;5.28;;
37221;SDS011;23119;51.842;-2.230;2022-11-12T07:11:32;9.43;;;4.72;;
37221;SDS011;23119;51.842;-2.230;2022-11-12T07:14:06;11.43;;;5.68;;
37221;SDS011;23119;51.842;-2.230;2022-11-12T07:16:35;11.10;;;4.80;;
37221;SDS011;23119;51.842;-2.230;2022-11-12T07:19:03;11.88;;;5.43;;
37221;SDS011;23119;51.842;-2.230;2022-11-12T07:21:34;9.45;;;5.13;;
37221;SDS011;23119;51.842;-2.230;2022-11-12T07:26:34;11.35;;;5.70;;
37221;SDS011;23119;51.842;-2.230;2022-11-12T07:29:01;11.32;;;6.07;;
37221;SDS011;23119;51.842;-2.230;2022-11-12T07:31:31;12.38;;;5.80;;
37221;SDS011;23119;51.842;-2.230;2022-11-12T07:36:28;10.18;;;5.68;;
37221;SDS011;23119;51.842;-2.230;2022-11-12T07:38:59;12.10;;;5.65;;
37221;SDS011;23119;51.842;-2.230;2022-11-12T07:41:30;11.98;;;5.00;;
37221;SDS011;23119;51.842;-2.230;2022-11-12T07:43:59;10.13;;;5.05;;
37221;SDS011;23119;51.842;-2.230;2022-11-12T07:46:30;11.30;;;5.60;;
37221;SDS011;23119;51.842;-2.230;2022-11-12T07:49:01;13.60;;;6.00;;
37221;SDS011;23119;51.842;-2.230;2022-11-12T07:51:28;9.40;;;5.45;;
37221;SDS011;23119;51.842;-2.230;2022-11-12T07:53:57;9.63;;;6.32;;
37221;SDS011;23119;51.842;-2.230;2022-11-12T07:56:28;10.57;;;5.70;;
37221;SDS011;23119;51.842;-2.230;2022-11-12T07:58:54;10.60;;;5.68;;
37221;SDS011;23119;51.842;-2.230;2022-11-12T08:03:58;13.57;;;6.70;;
37221;SDS011;23119;51.842;-2.230;2022-11-12T08:06:30;12.25;;;5.55;;
37221;SDS011;23119;51.842;-2.230;2022-11-12T08:08:57;9.35;;;5.30;;
37221;SDS011;23119;51.842;-2.230;2022-11-12T08:11:30;9.02;;;5.63;;
37221;SDS011;23119;51.842;-2.230;2022-11-12T08:13:56;14.13;;;5.35;;
37221;SDS011;23119;51.842;-2.230;2022-11-12T08:16:25;10.88;;;5.90;;
37221;SDS011;23119;51.842;-2.230;2022-11-12T08:18:54;9.70;;;5.43;;
37221;SDS011;23119;51.842;-2.230;2022-11-12T08:21:23;10.63;;;6.10;;
37221;SDS011;23119;51.842;-2.230;2022-11-12T08:26:19;8.75;;;5.18;;
37221;SDS011;23119;51.842;-2.230;2022-11-12T08:28:50;8.88;;;5.35;;
37221;SDS011;23119;51.842;-2.230;2022-11-12T08:31:22;10.48;;;5.10;;
37221;SDS011;23119;51.842;-2.230;2022-11-12T08:33:50;9.10;;;5.40;;
37221;SDS011;23119;51.842;-2.230;2022-11-12T08:36:16;8.57;;;5.28;;
37221;SDS011;23119;51.842;-2.230;2022-11-12T08:38:45;10.35;;;4.97;;
37221;SDS011;23119;51.842;-2.230;2022-11-12T08:41:11;11.05;;;5.78;;
37221;SDS011;23119;51.842;-2.230;2022-11-12T08:43:44;12.85;;;5.07;;
37221;SDS011;23119;51.842;-2.230;2022-11-12T08:46:09;9.50;;;5.57;;
37221;SDS011;23119;51.842;-2.230;2022-11-12T08:48:38;11.43;;;6.18;;
37221;SDS011;23119;51.842;-2.230;2022-11-12T08:51:10;9.95;;;5.55;;
37221;SDS011;23119;51.842;-2.230;2022-11-12T08:53:36;11.50;;;5.25;;
37221;SDS011;23119;51.842;-2.230;2022-11-12T08:56:04;11.77;;;6.18;;
37221;SDS011;23119;51.842;-2.230;2022-11-12T08:58:33;11.48;;;5.70;;
37221;SDS011;23119;51.842;-2.230;2022-11-12T09:01:07;9.02;;;5.88;;
37221;SDS011;23119;51.842;-2.230;2022-11-12T09:03:33;9.75;;;5.85;;
37221;SDS011;23119;51.842;-2.230;2022-11-12T09:06:03;9.57;;;5.25;;
37221;SDS011;23119;51.842;-2.230;2022-11-12T09:08:31;8.13;;;5.85;;
37221;SDS011;23119;51.842;-2.230;2022-11-12T09:11:03;10.40;;;5.55;;
37221;SDS011;23119;51.842;-2.230;2022-11-12T09:13:32;10.68;;;6.38;;
37221;SDS011;23119;51.842;-2.230;2022-11-12T09:16:05;10.57;;;5.25;;
37221;SDS011;23119;51.842;-2.230;2022-11-12T09:18:38;9.25;;;4.97;;
37221;SDS011;23119;51.842;-2.230;2022-11-12T09:21:05;9.00;;;5.32;;
37221;SDS011;23119;51.842;-2.230;2022-11-12T09:23:37;7.93;;;4.33;;
37221;SDS011;23119;51.842;-2.230;2022-11-12T09:26:05;12.13;;;3.63;;
37221;SDS011;23119;51.842;-2.230;2022-11-12T09:28:43;8.95;;;5.50;;
37221;SDS011;23119;51.842;-2.230;2022-11-12T09:31:13;12.18;;;5.82;;
37221;SDS011;23119;51.842;-2.230;2022-11-12T09:33:39;7.20;;;4.15;;
37221;SDS011;23119;51.842;-2.230;2022-11-12T09:36:13;10.10;;;4.90;;
37221;SDS011;23119;51.842;-2.230;2022-11-12T09:38:38;13.15;;;4.63;;
37221;SDS011;23119;51.842;-2.230;2022-11-12T09:41:09;7.82;;;3.97;;
37221;SDS011;23119;51.842;-2.230;2022-11-12T09:43:39;6.20;;;3.70;;
37221;SDS011;23119;51.842;-2.230;2022-11-12T09:51:50;11.15;;;5.00;;
37221;SDS011;23119;51.842;-2.230;2022-11-12T09:54:21;8.68;;;4.15;;
37221;SDS011;23119;51.842;-2.230;2022-11-12T09:56:52;15.23;;;5.65;;
37221;SDS011;23119;51.842;-2.230;2022-11-12T09:59:42;6.55;;;3.78;;
37221;SDS011;23119;51.842;-2.230;2022-11-12T10:05:19;6.97;;;4.57;;
37221;SDS011;23119;51.842;-2.230;2022-11-12T10:08:24;6.10;;;4.30;;
37221;SDS011;23119;51.842;-2.230;2022-11-12T10:11:17;9.23;;;4.68;;
37221;SDS011;23119;51.842;-2.230;2022-11-12T10:20:13;8.52;;;4.13;;
37221;SDS011;23119;51.842;-2.230;2022-11-12T10:25:32;7.15;;;4.93;;
37221;SDS011;23119;51.842;-2.230;2022-11-12T10:28:00;8.55;;;5.22;;
37221;SDS011;23119;51.842;-2.230;2022-11-12T10:30:37;11.27;;;5.88;;
37221;SDS011;23119;51.842;-2.230;2022-11-12T10:33:04;11.88;;;5.20;;
37221;SDS011;23119;51.842;-2.230;2022-11-12T10:35:30;7.60;;;4.28;;
37221;SDS011;23119;51.842;-2.230;2022-11-12T10:37:58;8.00;;;5.40;;
37221;SDS011;23119;51.842;-2.230;2022-11-12T10:40:34;13.05;;;5.82;;
37221;SDS011;23119;51.842;-2.230;2022-11-12T10:43:19;11.13;;;6.20;;
37221;SDS011;23119;51.842;-2.230;2022-11-12T10:45:47;8.25;;;4.93;;
37221;SDS011;23119;51.842;-2.230;2022-11-12T10:48:20;9.52;;;4.85;;
37221;SDS011;23119;51.842;-2.230;2022-11-12T10:50:59;8.60;;;5.20;;
37221;SDS011;23119;51.842;-2.230;2022-11-12T10:53:37;12.10;;;5.38;;
37221;SDS011;23119;51.842;-2.230;2022-11-12T10:56:22;11.40;;;5.85;;
37221;SDS011;23119;51.842;-2.230;2022-11-12T10:59:09;7.85;;;5.20;;
37221;SDS011;23119;51.842;-2.230;2022-11-12T11:01:39;10.43;;;4.45;;
37221;SDS011;23119;51.842;-2.230;2022-11-12T11:04:14;8.55;;;5.32;;
37221;SDS011;23119;51.842;-2.230;2022-11-12T11:06:56;9.02;;;6.15;;
37221;SDS011;23119;51.842;-2.230;2022-11-12T11:09:26;12.55;;;6.80;;
37221;SDS011;23119;51.842;-2.230;2022-11-12T11:12:00;9.60;;;6.60;;
37221;SDS011;23119;51.842;-2.230;2022-11-12T11:14:31;10.02;;;6.78;;
37221;SDS011;23119;51.842;-2.230;2022-11-12T11:17:03;9.75;;;5.78;;
37221;SDS011;23119;51.842;-2.230;2022-11-12T11:19:53;11.80;;;5.65;;
37221;SDS011;23119;51.842;-2.230;2022-11-12T11:22:27;8.93;;;5.70;;
37221;SDS011;23119;51.842;-2.230;2022-11-12T11:25:22;11.55;;;6.32;;
37221;SDS011;23119;51.842;-2.230;2022-11-12T11:30:59;10.43;;;6.43;;
37221;SDS011;23119;51.842;-2.230;2022-11-12T11:39:14;11.95;;;7.68;;
37221;SDS011;23119;51.842;-2.230;2022-11-12T11:44:44;9.50;;;6.75;;
37221;SDS011;23119;51.842;-2.230;2022-11-12T11:55:47;9.35;;;5.47;;
37221;SDS011;23119;51.842;-2.230;2022-11-12T11:58:27;8.35;;;5.20;;
37221;SDS011;23119;51.842;-2.230;2022-11-12T12:15:46;10.95;;;4.40;;
37221;SDS011;23119;51.842;-2.230;2022-11-12T12:20:54;12.10;;;4.68;;
37221;SDS011;23119;51.842;-2.230;2022-11-12T12:26:04;8.27;;;4.13;;
37221;SDS011;23119;51.842;-2.230;2022-11-12T12:28:59;6.13;;;3.08;;
37221;SDS011;23119;51.842;-2.230;2022-11-12T12:31:30;6.70;;;3.78;;
37221;SDS011;23119;51.842;-2.230;2022-11-12T12:34:01;6.80;;;3.55;;
37221;SDS011;23119;51.842;-2.230;2022-11-12T12:37:36;6.20;;;3.63;;
37221;SDS011;23119;51.842;-2.230;2022-11-12T12:42:54;6.70;;;2.25;;
37221;SDS011;23119;51.842;-2.230;2022-11-12T12:45:41;3.17;;;2.40;;
37221;SDS011;23119;51.842;-2.230;2022-11-12T12:50:54;4.35;;;1.90;;
37221;SDS011;23119;51.842;-2.230;2022-11-12T12:58:32;6.10;;;2.17;;
37221;SDS011;23119;51.842;-2.230;2022-11-12T13:09:28;5.88;;;1.75;;
37221;SDS011;23119;51.842;-2.230;2022-11-12T13:11:56;2.20;;;1.50;;
37221;SDS011;23119;51.842;-2.230;2022-11-12T13:19:34;7.82;;;1.67;;
37221;SDS011;23119;51.842;-2.230;2022-11-12T13:40:29;4.85;;;1.42;;
37221;SDS011;23119;51.842;-2.230;2022-11-12T13:43:05;7.43;;;1.60;;
37221;SDS011;23119;51.842;-2.230;2022-11-12T13:45:51;3.85;;;1.30;;
37221;SDS011;23119;51.842;-2.230;2022-11-12T13:48:41;4.72;;;1.13;;
37221;SDS011;23119;51.842;-2.230;2022-11-12T13:54:23;5.22;;;1.25;;
37221;SDS011;23119;51.842;-2.230;2022-11-12T13:56:55;3.95;;;1.05;;
37221;SDS011;23119;51.842;-2.230;2022-11-12T13:59:36;4.13;;;0.90;;
37221;SDS011;23119;51.842;-2.230;2022-11-12T14:02:52;2.30;;;1.13;;
37221;SDS011;23119;51.842;-2.230;2022-11-12T14:05:14;2.55;;;0.98;;
37221;SDS011;23119;51.842;-2.230;2022-11-12T14:10:36;2.58;;;0.93;;
37221;SDS011;23119;51.842;-2.230;2022-11-12T14:16:22;3.90;;;1.00;;
37221;SDS011;23119;51.842;-2.230;2022-11-12T14:24:49;5.30;;;1.10;;
37221;SDS011;23119;51.842;-2.230;2022-11-12T14:27:32;3.45;;;0.80;;
37221;SDS011;23119;51.842;-2.230;2022-11-12T14:30:12;4.97;;;1.10;;
37221;SDS011;23119;51.842;-2.230;2022-11-12T14:32:43;3.50;;;0.80;;
37221;SDS011;23119;51.842;-2.230;2022-11-12T14:35:24;4.05;;;0.70;;
37221;SDS011;23119;51.842;-2.230;2022-11-12T14:41:02;2.13;;;0.85;;
37221;SDS011;23119;51.842;-2.230;2022-11-12T14:46:05;2.65;;;0.80;;
37221;SDS011;23119;51.842;-2.230;2022-11-12T14:48:45;4.63;;;1.00;;
37221;SDS011;23119;51.842;-2.230;2022-11-12T14:51:16;2.90;;;0.80;;
37221;SDS011;23119;51.842;-2.230;2022-11-12T14:53:57;0.95;;;0.38;;
37221;SDS011;23119;51.842;-2.230;2022-11-12T14:56:34;5.03;;;1.02;;
37221;SDS011;23119;51.842;-2.230;2022-11-12T14:59:05;3.30;;;0.80;;
37221;SDS011;23119;51.842;-2.230;2022-11-12T15:01:35;2.72;;;0.70;;
37221;SDS011;23119;51.842;-2.230;2022-11-12T15:04:04;2.00;;;0.63;;
37221;SDS011;23119;51.842;-2.230;2022-11-12T15:06:55;3.08;;;0.80;;
37221;SDS011;23119;51.842;-2.230;2022-11-12T15:09:36;4.33;;;1.10;;
37221;SDS011;23119;51.842;-2.230;2022-11-12T15:12:10;3.88;;;0.77;;
37221;SDS011;23119;51.842;-2.230;2022-11-12T15:14:48;6.18;;;0.73;;
37221;SDS011;23119;51.842;-2.230;2022-11-12T15:17:39;3.13;;;0.70;;
37221;SDS011;23119;51.842;-2.230;2022-11-12T15:20:14;2.25;;;1.02;;
37221;SDS011;23119;51.842;-2.230;2022-11-12T15:22:48;5.38;;;0.88;;
37221;SDS011;23119;51.842;-2.230;2022-11-12T15:25:21;2.92;;;0.70;;
37221;SDS011;23119;51.842;-2.230;2022-11-12T15:28:13;3.50;;;0.77;;
37221;SDS011;23119;51.842;-2.230;2022-11-12T15:31:04;2.47;;;0.70;;
37221;SDS011;23119;51.842;-2.230;2022-11-12T15:33:55;3.97;;;0.80;;
37221;SDS011;23119;51.842;-2.230;2022-11-12T15:36:54;3.78;;;0.70;;
37221;SDS011;23119;51.842;-2.230;2022-11-12T15:39:58;2.00;;;0.60;;
37221;SDS011;23119;51.842;-2.230;2022-11-12T15:42:37;2.22;;;0.75;;
37221;SDS011;23119;51.842;-2.230;2022-11-12T15:45:19;2.75;;;0.70;;
37221;SDS011;23119;51.842;-2.230;2022-11-12T15:47:51;4.70;;;0.80;;
37221;SDS011;23119;51.842;-2.230;2022-11-12T15:50:22;4.03;;;0.70;;
37221;SDS011;23119;51.842;-2.230;2022-11-12T15:52:49;3.10;;;0.80;;
37221;SDS011;23119;51.842;-2.230;2022-11-12T15:55:24;3.00;;;0.60;;
37221;SDS011;23119;51.842;-2.230;2022-11-12T15:57:52;7.90;;;0.90;;
37221;SDS011;23119;51.842;-2.230;2022-11-12T16:00:38;4.18;;;0.80;;
37221;SDS011;23119;51.842;-2.230;2022-11-12T16:03:17;3.17;;;0.63;;
37221;SDS011;23119;51.842;-2.230;2022-11-12T16:05:49;3.95;;;0.77;;
37221;SDS011;23119;51.842;-2.230;2022-11-12T16:08:17;2.80;;;1.60;;
37221;SDS011;23119;51.842;-2.230;2022-11-12T16:10:49;3.05;;;0.82;;
37221;SDS011;23119;51.842;-2.230;2022-11-12T16:19:22;4.55;;;0.70;;
37221;SDS011;23119;51.842;-2.230;2022-11-12T16:21:58;2.35;;;0.60;;
37221;SDS011;23119;51.842;-2.230;2022-11-12T16:24:37;3.15;;;0.80;;
37221;SDS011;23119;51.842;-2.230;2022-11-12T16:27:09;4.60;;;1.08;;
37221;SDS011;23119;51.842;-2.230;2022-11-12T16:29:44;6.10;;;0.80;;
37221;SDS011;23119;51.842;-2.230;2022-11-12T16:32:11;6.20;;;0.90;;
37221;SDS011;23119;51.842;-2.230;2022-11-12T16:34:39;2.75;;;0.80;;
37221;SDS011;23119;51.842;-2.230;2022-11-12T16:37:07;5.10;;;0.80;;
37221;SDS011;23119;51.842;-2.230;2022-11-12T16:39:36;2.35;;;0.80;;
37221;SDS011;23119;51.842;-2.230;2022-11-12T16:42:02;4.03;;;0.70;;
37221;SDS011;23119;51.842;-2.230;2022-11-12T16:44:28;2.67;;;0.80;;
37221;SDS011;23119;51.842;-2.230;2022-11-12T16:46:56;3.97;;;0.85;;
37221;SDS011;23119;51.842;-2.230;2022-11-12T16:49:22;5.43;;;0.90;;
37221;SDS011;23119;51.842;-2.230;2022-11-12T16:51:50;3.90;;;1.05;;
37221;SDS011;23119;51.842;-2.230;2022-11-12T16:54:23;4.63;;;1.23;;
37221;SDS011;23119;51.842;-2.230;2022-11-12T16:56:54;5.95;;;1.20;;
37221;SDS011;23119;51.842;-2.230;2022-11-12T16:59:20;7.43;;;1.10;;
37221;SDS011;23119;51.842;-2.230;2022-11-12T17:01:51;5.88;;;0.90;;
37221;SDS011;23119;51.842;-2.230;2022-11-12T17:04:25;4.50;;;0.88;;
37221;SDS011;23119;51.842;-2.230;2022-11-12T17:06:56;2.33;;;0.80;;
37221;SDS011;23119;51.842;-2.230;2022-11-12T17:09:25;6.30;;;1.30;;
37221;SDS011;23119;51.842;-2.230;2022-11-12T17:11:59;2.58;;;1.00;;
37221;SDS011;23119;51.842;-2.230;2022-11-12T17:14:30;7.15;;;1.30;;
37221;SDS011;23119;51.842;-2.230;2022-11-12T17:17:21;5.70;;;1.20;;
37221;SDS011;23119;51.842;-2.230;2022-11-12T17:19:49;5.18;;;1.10;;
37221;SDS011;23119;51.842;-2.230;2022-11-12T17:22:15;4.03;;;0.90;;
37221;SDS011;23119;51.842;-2.230;2022-11-12T17:24:43;3.95;;;0.80;;
37221;SDS011;23119;51.842;-2.230;2022-11-12T17:27:12;3.38;;;1.33;;